<?xml version="1.0" encoding="UTF-8" standalone="no" ?>
<gpx xmlns="http://www.topografix.com/GPX/1/1" xmlns:xsi="http://www.w3.org/2001/XMLSchema-instance" xsi:schemaLocation="http://www.topografix.com/GPX/1/1 http://www.topografix.com/GPX/1/1/gpx.xsd" version="1.1" creator="VisuGPX - https://www.visugpx.com">
  <metadata>
    <name>Perso-HteMarne-17-06-09-IsEnBassigny-Essey-Donnemarie-Ninville-Etiquets-Is-AvecSylvie</name>
    <desc><![CDATA[Rando dans mon Bassigny]]></desc>
  </metadata>
  <trk>
    <name><![CDATA[17-06-09-HteMarne-Is-Essey-Donnemarie-Ninville-Etiquets-Is-AvecSylvie]]></name>
    <trkseg>
      <trkpt lat="48.03542" lon="5.43862">
        <ele>358</ele>
        <time>2017-06-09T12:30:18Z</time>
      </trkpt>
      <trkpt lat="48.03567" lon="5.43749">
        <ele>358</ele>
        <time>2017-06-09T12:31:30Z</time>
      </trkpt>
      <trkpt lat="48.03594" lon="5.43609">
        <ele>358</ele>
        <time>2017-06-09T12:32:42Z</time>
      </trkpt>
      <trkpt lat="48.0364" lon="5.43506">
        <ele>361</ele>
        <time>2017-06-09T12:36:47Z</time>
      </trkpt>
      <trkpt lat="48.0368" lon="5.43375">
        <ele>361</ele>
        <time>2017-06-09T12:38:04Z</time>
      </trkpt>
      <trkpt lat="48.03721" lon="5.43254">
        <ele>360</ele>
        <time>2017-06-09T12:39:09Z</time>
      </trkpt>
      <trkpt lat="48.03785" lon="5.43146">
        <ele>358</ele>
        <time>2017-06-09T12:40:18Z</time>
      </trkpt>
      <trkpt lat="48.03842" lon="5.4303">
        <ele>356</ele>
        <time>2017-06-09T12:41:27Z</time>
      </trkpt>
      <trkpt lat="48.039" lon="5.4292">
        <ele>355</ele>
        <time>2017-06-09T12:42:38Z</time>
      </trkpt>
      <trkpt lat="48.03969" lon="5.42831">
        <ele>356</ele>
        <time>2017-06-09T12:43:46Z</time>
      </trkpt>
      <trkpt lat="48.0404" lon="5.42756">
        <ele>355</ele>
        <time>2017-06-09T12:46:02Z</time>
      </trkpt>
      <trkpt lat="48.04121" lon="5.42691">
        <ele>357</ele>
        <time>2017-06-09T12:48:04Z</time>
      </trkpt>
      <trkpt lat="48.04189" lon="5.42596">
        <ele>357</ele>
        <time>2017-06-09T12:49:10Z</time>
      </trkpt>
      <trkpt lat="48.04262" lon="5.42505">
        <ele>356</ele>
        <time>2017-06-09T12:50:17Z</time>
      </trkpt>
      <trkpt lat="48.04351" lon="5.42454">
        <ele>356</ele>
        <time>2017-06-09T12:51:27Z</time>
      </trkpt>
      <trkpt lat="48.0444" lon="5.42445">
        <ele>358</ele>
        <time>2017-06-09T12:53:09Z</time>
      </trkpt>
      <trkpt lat="48.04528" lon="5.42387">
        <ele>358</ele>
        <time>2017-06-09T12:54:18Z</time>
      </trkpt>
      <trkpt lat="48.04618" lon="5.4234">
        <ele>357</ele>
        <time>2017-06-09T12:55:24Z</time>
      </trkpt>
      <trkpt lat="48.04707" lon="5.42288">
        <ele>356</ele>
        <time>2017-06-09T12:56:32Z</time>
      </trkpt>
      <trkpt lat="48.04784" lon="5.42211">
        <ele>356</ele>
        <time>2017-06-09T12:57:38Z</time>
      </trkpt>
      <trkpt lat="48.04863" lon="5.42138">
        <ele>355</ele>
        <time>2017-06-09T12:58:50Z</time>
      </trkpt>
      <trkpt lat="48.04942" lon="5.42057">
        <ele>356</ele>
        <time>2017-06-09T12:59:59Z</time>
      </trkpt>
      <trkpt lat="48.05019" lon="5.41975">
        <ele>356</ele>
        <time>2017-06-09T13:01:05Z</time>
      </trkpt>
      <trkpt lat="48.05097" lon="5.41902">
        <ele>356</ele>
        <time>2017-06-09T13:02:13Z</time>
      </trkpt>
      <trkpt lat="48.05174" lon="5.41816">
        <ele>356</ele>
        <time>2017-06-09T13:03:22Z</time>
      </trkpt>
      <trkpt lat="48.0527" lon="5.41748">
        <ele>356</ele>
        <time>2017-06-09T13:04:37Z</time>
      </trkpt>
      <trkpt lat="48.05374" lon="5.41642">
        <ele>361</ele>
        <time>2017-06-09T13:06:10Z</time>
      </trkpt>
      <trkpt lat="48.05425" lon="5.41463">
        <ele>358</ele>
        <time>2017-06-09T13:07:43Z</time>
      </trkpt>
      <trkpt lat="48.05533" lon="5.41344">
        <ele>359</ele>
        <time>2017-06-09T13:09:19Z</time>
      </trkpt>
      <trkpt lat="48.05609" lon="5.41209">
        <ele>360</ele>
        <time>2017-06-09T13:10:47Z</time>
      </trkpt>
      <trkpt lat="48.05652" lon="5.41062">
        <ele>358</ele>
        <time>2017-06-09T13:12:01Z</time>
      </trkpt>
      <trkpt lat="48.05713" lon="5.40948">
        <ele>358</ele>
        <time>2017-06-09T13:13:11Z</time>
      </trkpt>
      <trkpt lat="48.05752" lon="5.40818">
        <ele>356</ele>
        <time>2017-06-09T13:14:20Z</time>
      </trkpt>
      <trkpt lat="48.05795" lon="5.40654">
        <ele>355</ele>
        <time>2017-06-09T13:15:43Z</time>
      </trkpt>
      <trkpt lat="48.05854" lon="5.4053">
        <ele>356</ele>
        <time>2017-06-09T13:17:21Z</time>
      </trkpt>
      <trkpt lat="48.05928" lon="5.40428">
        <ele>356</ele>
        <time>2017-06-09T13:18:32Z</time>
      </trkpt>
      <trkpt lat="48.06004" lon="5.40325">
        <ele>356</ele>
        <time>2017-06-09T13:19:44Z</time>
      </trkpt>
      <trkpt lat="48.06078" lon="5.40229">
        <ele>356</ele>
        <time>2017-06-09T13:20:52Z</time>
      </trkpt>
      <trkpt lat="48.06151" lon="5.40139">
        <ele>356</ele>
        <time>2017-06-09T13:22:00Z</time>
      </trkpt>
      <trkpt lat="48.06252" lon="5.4013">
        <ele>358</ele>
        <time>2017-06-09T13:23:14Z</time>
      </trkpt>
      <trkpt lat="48.06353" lon="5.40125">
        <ele>363</ele>
        <time>2017-06-09T13:24:26Z</time>
      </trkpt>
      <trkpt lat="48.06452" lon="5.40124">
        <ele>368</ele>
        <time>2017-06-09T13:25:39Z</time>
      </trkpt>
      <trkpt lat="48.06554" lon="5.40093">
        <ele>371</ele>
        <time>2017-06-09T13:26:52Z</time>
      </trkpt>
      <trkpt lat="48.06671" lon="5.4001">
        <ele>376</ele>
        <time>2017-06-09T13:28:27Z</time>
      </trkpt>
      <trkpt lat="48.06833" lon="5.39895">
        <ele>379</ele>
        <time>2017-06-09T13:32:00Z</time>
      </trkpt>
      <trkpt lat="48.06897" lon="5.39802">
        <ele>386</ele>
        <time>2017-06-09T13:33:14Z</time>
      </trkpt>
      <trkpt lat="48.0695" lon="5.39727">
        <ele>394</ele>
        <time>2017-06-09T13:34:29Z</time>
      </trkpt>
      <trkpt lat="48.07002" lon="5.3981">
        <ele>405</ele>
        <time>2017-06-09T13:35:53Z</time>
      </trkpt>
      <trkpt lat="48.06941" lon="5.39921">
        <ele>405</ele>
        <time>2017-06-09T13:37:01Z</time>
      </trkpt>
      <trkpt lat="48.06998" lon="5.40027">
        <ele>409</ele>
        <time>2017-06-09T13:38:19Z</time>
      </trkpt>
      <trkpt lat="48.06973" lon="5.40163">
        <ele>411</ele>
        <time>2017-06-09T13:39:27Z</time>
      </trkpt>
      <trkpt lat="48.0697" lon="5.40296">
        <ele>411</ele>
        <time>2017-06-09T13:40:31Z</time>
      </trkpt>
      <trkpt lat="48.06995" lon="5.40434">
        <ele>413</ele>
        <time>2017-06-09T13:41:41Z</time>
      </trkpt>
      <trkpt lat="48.0697" lon="5.40565">
        <ele>416</ele>
        <time>2017-06-09T13:42:46Z</time>
      </trkpt>
      <trkpt lat="48.0694" lon="5.40698">
        <ele>418</ele>
        <time>2017-06-09T13:43:54Z</time>
      </trkpt>
      <trkpt lat="48.06934" lon="5.40833">
        <ele>420</ele>
        <time>2017-06-09T13:44:58Z</time>
      </trkpt>
      <trkpt lat="48.06906" lon="5.40961">
        <ele>421</ele>
        <time>2017-06-09T13:46:08Z</time>
      </trkpt>
      <trkpt lat="48.06919" lon="5.41095">
        <ele>421</ele>
        <time>2017-06-09T13:47:11Z</time>
      </trkpt>
      <trkpt lat="48.06967" lon="5.41224">
        <ele>419</ele>
        <time>2017-06-09T13:48:24Z</time>
      </trkpt>
      <trkpt lat="48.07022" lon="5.41335">
        <ele>418</ele>
        <time>2017-06-09T13:49:29Z</time>
      </trkpt>
      <trkpt lat="48.07067" lon="5.41455">
        <ele>419</ele>
        <time>2017-06-09T13:50:34Z</time>
      </trkpt>
      <trkpt lat="48.07123" lon="5.41561">
        <ele>417</ele>
        <time>2017-06-09T13:51:37Z</time>
      </trkpt>
      <trkpt lat="48.07174" lon="5.41676">
        <ele>418</ele>
        <time>2017-06-09T13:52:42Z</time>
      </trkpt>
      <trkpt lat="48.07214" lon="5.41796">
        <ele>421</ele>
        <time>2017-06-09T13:53:49Z</time>
      </trkpt>
      <trkpt lat="48.07225" lon="5.41933">
        <ele>423</ele>
        <time>2017-06-09T13:54:52Z</time>
      </trkpt>
      <trkpt lat="48.07229" lon="5.42072">
        <ele>423</ele>
        <time>2017-06-09T13:55:58Z</time>
      </trkpt>
      <trkpt lat="48.07186" lon="5.42192">
        <ele>420</ele>
        <time>2017-06-09T13:57:03Z</time>
      </trkpt>
      <trkpt lat="48.07175" lon="5.42318">
        <ele>420</ele>
        <time>2017-06-09T14:00:35Z</time>
      </trkpt>
      <trkpt lat="48.07173" lon="5.42461">
        <ele>421</ele>
        <time>2017-06-09T14:01:42Z</time>
      </trkpt>
      <trkpt lat="48.07138" lon="5.42588">
        <ele>420</ele>
        <time>2017-06-09T14:02:48Z</time>
      </trkpt>
      <trkpt lat="48.07094" lon="5.42717">
        <ele>421</ele>
        <time>2017-06-09T14:03:56Z</time>
      </trkpt>
      <trkpt lat="48.07039" lon="5.42833">
        <ele>421</ele>
        <time>2017-06-09T14:05:02Z</time>
      </trkpt>
      <trkpt lat="48.06983" lon="5.42932">
        <ele>423</ele>
        <time>2017-06-09T14:06:05Z</time>
      </trkpt>
      <trkpt lat="48.06917" lon="5.43028">
        <ele>424</ele>
        <time>2017-06-09T14:07:10Z</time>
      </trkpt>
      <trkpt lat="48.06839" lon="5.43084">
        <ele>424</ele>
        <time>2017-06-09T14:09:13Z</time>
      </trkpt>
      <trkpt lat="48.06745" lon="5.43084">
        <ele>426</ele>
        <time>2017-06-09T14:10:24Z</time>
      </trkpt>
      <trkpt lat="48.06696" lon="5.4318">
        <ele>424</ele>
        <time>2017-06-09T14:11:30Z</time>
      </trkpt>
      <trkpt lat="48.06752" lon="5.43288">
        <ele>418</ele>
        <time>2017-06-09T14:12:36Z</time>
      </trkpt>
      <trkpt lat="48.06857" lon="5.43348">
        <ele>411</ele>
        <time>2017-06-09T14:14:13Z</time>
      </trkpt>
      <trkpt lat="48.06945" lon="5.43409">
        <ele>405</ele>
        <time>2017-06-09T14:15:22Z</time>
      </trkpt>
      <trkpt lat="48.07039" lon="5.43457">
        <ele>398</ele>
        <time>2017-06-09T14:16:33Z</time>
      </trkpt>
      <trkpt lat="48.07142" lon="5.4348">
        <ele>392</ele>
        <time>2017-06-09T14:18:32Z</time>
      </trkpt>
      <trkpt lat="48.07252" lon="5.4348">
        <ele>387</ele>
        <time>2017-06-09T14:19:54Z</time>
      </trkpt>
      <trkpt lat="48.07325" lon="5.43602">
        <ele>385</ele>
        <time>2017-06-09T14:21:19Z</time>
      </trkpt>
      <trkpt lat="48.07333" lon="5.43723">
        <ele>384</ele>
        <time>2017-06-09T14:22:34Z</time>
      </trkpt>
      <trkpt lat="48.07317" lon="5.4386">
        <ele>386</ele>
        <time>2017-06-09T14:23:55Z</time>
      </trkpt>
      <trkpt lat="48.0722" lon="5.43931">
        <ele>392</ele>
        <time>2017-06-09T14:25:14Z</time>
      </trkpt>
      <trkpt lat="48.0713" lon="5.44">
        <ele>399</ele>
        <time>2017-06-09T14:26:26Z</time>
      </trkpt>
      <trkpt lat="48.07045" lon="5.44065">
        <ele>402</ele>
        <time>2017-06-09T14:27:33Z</time>
      </trkpt>
      <trkpt lat="48.06969" lon="5.44155">
        <ele>406</ele>
        <time>2017-06-09T14:28:44Z</time>
      </trkpt>
      <trkpt lat="48.06914" lon="5.44269">
        <ele>407</ele>
        <time>2017-06-09T14:29:53Z</time>
      </trkpt>
      <trkpt lat="48.06829" lon="5.44352">
        <ele>405</ele>
        <time>2017-06-09T14:31:08Z</time>
      </trkpt>
      <trkpt lat="48.06738" lon="5.4441">
        <ele>406</ele>
        <time>2017-06-09T14:32:17Z</time>
      </trkpt>
      <trkpt lat="48.06645" lon="5.44427">
        <ele>405</ele>
        <time>2017-06-09T14:33:33Z</time>
      </trkpt>
      <trkpt lat="48.06566" lon="5.44495">
        <ele>407</ele>
        <time>2017-06-09T14:34:39Z</time>
      </trkpt>
      <trkpt lat="48.06496" lon="5.44541">
        <ele>404</ele>
        <time>2017-06-09T14:35:47Z</time>
      </trkpt>
      <trkpt lat="48.06425" lon="5.44455">
        <ele>400</ele>
        <time>2017-06-09T14:36:51Z</time>
      </trkpt>
      <trkpt lat="48.06356" lon="5.44361">
        <ele>396</ele>
        <time>2017-06-09T14:37:57Z</time>
      </trkpt>
      <trkpt lat="48.06288" lon="5.44266">
        <ele>391</ele>
        <time>2017-06-09T14:39:03Z</time>
      </trkpt>
      <trkpt lat="48.06219" lon="5.44175">
        <ele>388</ele>
        <time>2017-06-09T14:40:08Z</time>
      </trkpt>
      <trkpt lat="48.06128" lon="5.44194">
        <ele>388</ele>
        <time>2017-06-09T14:41:44Z</time>
      </trkpt>
      <trkpt lat="48.06048" lon="5.44259">
        <ele>388</ele>
        <time>2017-06-09T14:43:03Z</time>
      </trkpt>
      <trkpt lat="48.05933" lon="5.44292">
        <ele>390</ele>
        <time>2017-06-09T14:44:28Z</time>
      </trkpt>
      <trkpt lat="48.05792" lon="5.44281">
        <ele>395</ele>
        <time>2017-06-09T14:46:33Z</time>
      </trkpt>
      <trkpt lat="48.05799" lon="5.44029">
        <ele>402</ele>
        <time>2017-06-09T14:48:53Z</time>
      </trkpt>
      <trkpt lat="48.0579" lon="5.43829">
        <ele>403</ele>
        <time>2017-06-09T14:51:00Z</time>
      </trkpt>
      <trkpt lat="48.05672" lon="5.43815">
        <ele>401</ele>
        <time>2017-06-09T14:52:51Z</time>
      </trkpt>
      <trkpt lat="48.05567" lon="5.43793">
        <ele>400</ele>
        <time>2017-06-09T14:54:31Z</time>
      </trkpt>
      <trkpt lat="48.05651" lon="5.43832">
        <ele>402</ele>
        <time>2017-06-09T14:57:42Z</time>
      </trkpt>
      <trkpt lat="48.05746" lon="5.43788">
        <ele>400</ele>
        <time>2017-06-09T14:59:30Z</time>
      </trkpt>
      <trkpt lat="48.05815" lon="5.43893">
        <ele>405</ele>
        <time>2017-06-09T15:01:00Z</time>
      </trkpt>
      <trkpt lat="48.0579" lon="5.44063">
        <ele>401</ele>
        <time>2017-06-09T15:02:31Z</time>
      </trkpt>
      <trkpt lat="48.05754" lon="5.44285">
        <ele>394</ele>
        <time>2017-06-09T15:04:55Z</time>
      </trkpt>
      <trkpt lat="48.05653" lon="5.4432">
        <ele>399</ele>
        <time>2017-06-09T15:06:22Z</time>
      </trkpt>
      <trkpt lat="48.05564" lon="5.44351">
        <ele>401</ele>
        <time>2017-06-09T15:07:30Z</time>
      </trkpt>
      <trkpt lat="48.05466" lon="5.44378">
        <ele>402</ele>
        <time>2017-06-09T15:08:44Z</time>
      </trkpt>
      <trkpt lat="48.05374" lon="5.44424">
        <ele>404</ele>
        <time>2017-06-09T15:09:53Z</time>
      </trkpt>
      <trkpt lat="48.05282" lon="5.44456">
        <ele>405</ele>
        <time>2017-06-09T15:11:00Z</time>
      </trkpt>
      <trkpt lat="48.05195" lon="5.44501">
        <ele>405</ele>
        <time>2017-06-09T15:13:02Z</time>
      </trkpt>
      <trkpt lat="48.05115" lon="5.4456">
        <ele>404</ele>
        <time>2017-06-09T15:14:27Z</time>
      </trkpt>
      <trkpt lat="48.05025" lon="5.44584">
        <ele>409</ele>
        <time>2017-06-09T15:15:34Z</time>
      </trkpt>
      <trkpt lat="48.04944" lon="5.44638">
        <ele>411</ele>
        <time>2017-06-09T15:16:56Z</time>
      </trkpt>
      <trkpt lat="48.04849" lon="5.44652">
        <ele>409</ele>
        <time>2017-06-09T15:18:27Z</time>
      </trkpt>
      <trkpt lat="48.04764" lon="5.44722">
        <ele>400</ele>
        <time>2017-06-09T15:19:50Z</time>
      </trkpt>
      <trkpt lat="48.04706" lon="5.44609">
        <ele>395</ele>
        <time>2017-06-09T15:21:30Z</time>
      </trkpt>
      <trkpt lat="48.04608" lon="5.44589">
        <ele>390</ele>
        <time>2017-06-09T15:22:44Z</time>
      </trkpt>
      <trkpt lat="48.04519" lon="5.44612">
        <ele>386</ele>
        <time>2017-06-09T15:23:45Z</time>
      </trkpt>
      <trkpt lat="48.04437" lon="5.44636">
        <ele>384</ele>
        <time>2017-06-09T15:24:47Z</time>
      </trkpt>
      <trkpt lat="48.04347" lon="5.44612">
        <ele>382</ele>
        <time>2017-06-09T15:26:39Z</time>
      </trkpt>
      <trkpt lat="48.04257" lon="5.44578">
        <ele>384</ele>
        <time>2017-06-09T15:27:45Z</time>
      </trkpt>
      <trkpt lat="48.04164" lon="5.44554">
        <ele>384</ele>
        <time>2017-06-09T15:28:55Z</time>
      </trkpt>
      <trkpt lat="48.04069" lon="5.44566">
        <ele>385</ele>
        <time>2017-06-09T15:30:03Z</time>
      </trkpt>
      <trkpt lat="48.03978" lon="5.4459">
        <ele>388</ele>
        <time>2017-06-09T15:31:40Z</time>
      </trkpt>
      <trkpt lat="48.03888" lon="5.44576">
        <ele>393</ele>
        <time>2017-06-09T15:32:46Z</time>
      </trkpt>
      <trkpt lat="48.03799" lon="5.44568">
        <ele>391</ele>
        <time>2017-06-09T15:33:53Z</time>
      </trkpt>
      <trkpt lat="48.03732" lon="5.44478">
        <ele>389</ele>
        <time>2017-06-09T15:34:59Z</time>
      </trkpt>
      <trkpt lat="48.03638" lon="5.4447">
        <ele>388</ele>
        <time>2017-06-09T15:36:06Z</time>
      </trkpt>
      <trkpt lat="48.03553" lon="5.44539">
        <ele>389</ele>
        <time>2017-06-09T15:37:15Z</time>
      </trkpt>
      <trkpt lat="48.0348" lon="5.4464">
        <ele>390</ele>
        <time>2017-06-09T15:38:26Z</time>
      </trkpt>
    </trkseg>
  </trk>
</gpx>